sensor_id;sensor_type;location;lat;lon;timestamp;pressure;altitude;pressure_sealevel;temperature;humidity
35910;BME280;22004;49.120;-0.200;2023-02-17T00:00:21;102390.63;;;11.35;79.74
35910;BME280;22004;49.120;-0.200;2023-02-17T00:02:46;102389.78;;;11.35;79.67
35910;BME280;22004;49.120;-0.200;2023-02-17T00:05:13;102383.69;;;11.23;83.30
35910;BME280;22004;49.120;-0.200;2023-02-17T00:07:38;102392.56;;;11.43;79.30
35910;BME280;22004;49.120;-0.200;2023-02-17T00:10:05;102391.59;;;11.44;78.47
35910;BME280;22004;49.120;-0.200;2023-02-17T00:12:30;102391.19;;;11.39;81.10
35910;BME280;22004;49.120;-0.200;2023-02-17T00:14:56;102388.22;;;11.32;82.57
35910;BME280;22004;49.120;-0.200;2023-02-17T00:17:21;102392.91;;;11.30;81.81
35910;BME280;22004;49.120;-0.200;2023-02-17T00:19:47;102394.44;;;11.33;82.06
35910;BME280;22004;49.120;-0.200;2023-02-17T00:22:12;102393.72;;;11.41;80.42
35910;BME280;22004;49.120;-0.200;2023-02-17T00:24:38;102397.81;;;11.45;80.26
35910;BME280;22004;49.120;-0.200;2023-02-17T00:27:05;102398.34;;;11.48;80.21
35910;BME280;22004;49.120;-0.200;2023-02-17T00:29:31;102402.38;;;11.34;80.92
35910;BME280;22004;49.120;-0.200;2023-02-17T00:31:57;102391.06;;;11.31;84.05
35910;BME280;22004;49.120;-0.200;2023-02-17T00:34:22;102397.41;;;11.39;80.42
35910;BME280;22004;49.120;-0.200;2023-02-17T00:36:48;102397.13;;;11.33;82.63
35910;BME280;22004;49.120;-0.200;2023-02-17T00:39:15;102387.50;;;11.40;82.69
35910;BME280;22004;49.120;-0.200;2023-02-17T00:41:40;102389.91;;;11.33;84.35
35910;BME280;22004;49.120;-0.200;2023-02-17T00:44:06;102389.31;;;11.49;82.56
35910;BME280;22004;49.120;-0.200;2023-02-17T00:46:31;102391.09;;;11.58;80.08
35910;BME280;22004;49.120;-0.200;2023-02-17T00:48:57;102394.78;;;11.57;80.45
35910;BME280;22004;49.120;-0.200;2023-02-17T00:51:22;102398.31;;;11.58;80.91
35910;BME280;22004;49.120;-0.200;2023-02-17T00:53:48;102401.78;;;11.78;78.55
35910;BME280;22004;49.120;-0.200;2023-02-17T00:56:14;102398.63;;;11.55;83.80
35910;BME280;22004;49.120;-0.200;2023-02-17T00:58:39;102399.72;;;11.62;80.69
35910;BME280;22004;49.120;-0.200;2023-02-17T01:01:09;102388.53;;;11.67;81.52
35910;BME280;22004;49.120;-0.200;2023-02-17T01:03:34;102394.78;;;11.57;84.00
35910;BME280;22004;49.120;-0.200;2023-02-17T01:06:06;102390.69;;;11.53;82.01
35910;BME280;22004;49.120;-0.200;2023-02-17T01:08:32;102399.84;;;11.70;81.14
35910;BME280;22004;49.120;-0.200;2023-02-17T01:10:57;102395.06;;;11.64;80.39
35910;BME280;22004;49.120;-0.200;2023-02-17T01:13:23;102399.16;;;11.58;83.71
35910;BME280;22004;49.120;-0.200;2023-02-17T01:15:50;102392.47;;;11.72;80.91
35910;BME280;22004;49.120;-0.200;2023-02-17T01:18:17;102390.22;;;11.68;82.32
35910;BME280;22004;49.120;-0.200;2023-02-17T01:20:43;102392.38;;;11.64;81.27
35910;BME280;22004;49.120;-0.200;2023-02-17T01:23:10;102392.63;;;11.71;80.21
35910;BME280;22004;49.120;-0.200;2023-02-17T01:25:40;102393.31;;;11.82;79.80
35910;BME280;22004;49.120;-0.200;2023-02-17T01:28:06;102391.94;;;11.69;81.00
35910;BME280;22004;49.120;-0.200;2023-02-17T01:30:32;102398.16;;;11.69;83.54
35910;BME280;22004;49.120;-0.200;2023-02-17T01:32:58;102400.72;;;11.61;82.61
35910;BME280;22004;49.120;-0.200;2023-02-17T01:35:23;102399.81;;;11.80;78.73
35910;BME280;22004;49.120;-0.200;2023-02-17T01:37:48;102403.22;;;11.72;82.81
35910;BME280;22004;49.120;-0.200;2023-02-17T01:40:15;102402.81;;;11.67;80.52
35910;BME280;22004;49.120;-0.200;2023-02-17T01:42:41;102405.47;;;11.77;82.51
35910;BME280;22004;49.120;-0.200;2023-02-17T01:47:44;102397.03;;;11.62;83.93
35910;BME280;22004;49.120;-0.200;2023-02-17T01:50:12;102400.00;;;11.69;80.08
35910;BME280;22004;49.120;-0.200;2023-02-17T01:52:39;102399.44;;;11.65;82.95
35910;BME280;22004;49.120;-0.200;2023-02-17T01:55:07;102404.09;;;11.63;81.94
35910;BME280;22004;49.120;-0.200;2023-02-17T01:57:37;102402.75;;;11.49;84.97
35910;BME280;22004;49.120;-0.200;2023-02-17T02:00:07;102397.16;;;11.70;81.81
35910;BME280;22004;49.120;-0.200;2023-02-17T02:02:32;102400.56;;;11.62;81.50
35910;BME280;22004;49.120;-0.200;2023-02-17T02:04:59;102392.34;;;11.74;79.15
35910;BME280;22004;49.120;-0.200;2023-02-17T02:07:27;102396.00;;;11.73;79.79
35910;BME280;22004;49.120;-0.200;2023-02-17T02:09:55;102386.44;;;11.60;83.09
35910;BME280;22004;49.120;-0.200;2023-02-17T02:12:24;102382.78;;;11.52;81.72
35910;BME280;22004;49.120;-0.200;2023-02-17T02:14:51;102379.94;;;11.53;84.46
35910;BME280;22004;49.120;-0.200;2023-02-17T02:23:14;102373.03;;;11.51;84.15
35910;BME280;22004;49.120;-0.200;2023-02-17T02:34:52;102371.91;;;11.44;85.73
35910;BME280;22004;49.120;-0.200;2023-02-17T02:37:25;102358.75;;;11.41;85.33
35910;BME280;22004;49.120;-0.200;2023-02-17T02:39:53;102357.91;;;11.40;86.04
35910;BME280;22004;49.120;-0.200;2023-02-17T02:42:22;102360.88;;;11.37;86.34
35910;BME280;22004;49.120;-0.200;2023-02-17T02:44:48;102361.03;;;11.35;85.20
35910;BME280;22004;49.120;-0.200;2023-02-17T02:50:13;102355.81;;;11.34;85.37
35910;BME280;22004;49.120;-0.200;2023-02-17T02:52:47;102352.38;;;11.42;84.47
35910;BME280;22004;49.120;-0.200;2023-02-17T02:55:21;102348.28;;;11.37;85.54
35910;BME280;22004;49.120;-0.200;2023-02-17T02:58:22;102351.28;;;11.34;85.62
35910;BME280;22004;49.120;-0.200;2023-02-17T03:01:06;102343.50;;;11.31;85.37
35910;BME280;22004;49.120;-0.200;2023-02-17T03:04:01;102349.56;;;11.33;85.97
35910;BME280;22004;49.120;-0.200;2023-02-17T03:06:40;102346.75;;;11.35;85.75
35910;BME280;22004;49.120;-0.200;2023-02-17T03:09:11;102352.25;;;11.33;86.10
35910;BME280;22004;49.120;-0.200;2023-02-17T03:11:40;102347.47;;;11.27;87.17
35910;BME280;22004;49.120;-0.200;2023-02-17T03:14:08;102344.38;;;11.22;86.53
35910;BME280;22004;49.120;-0.200;2023-02-17T03:16:35;102341.00;;;11.20;85.41
35910;BME280;22004;49.120;-0.200;2023-02-17T03:19:01;102343.53;;;11.22;86.66
35910;BME280;22004;49.120;-0.200;2023-02-17T03:21:34;102341.28;;;11.17;87.18
35910;BME280;22004;49.120;-0.200;2023-02-17T03:23:59;102342.84;;;11.20;82.61
35910;BME280;22004;49.120;-0.200;2023-02-17T03:26:25;102336.13;;;11.33;84.47
35910;BME280;22004;49.120;-0.200;2023-02-17T03:28:50;102335.88;;;11.27;82.01
35910;BME280;22004;49.120;-0.200;2023-02-17T03:31:15;102331.91;;;11.31;80.90
35910;BME280;22004;49.120;-0.200;2023-02-17T03:33:41;102344.78;;;11.27;85.83
35910;BME280;22004;49.120;-0.200;2023-02-17T03:36:06;102340.00;;;11.21;84.53
35910;BME280;22004;49.120;-0.200;2023-02-17T03:38:32;102346.88;;;11.33;83.45
35910;BME280;22004;49.120;-0.200;2023-02-17T03:40:57;102343.09;;;11.26;85.66
35910;BME280;22004;49.120;-0.200;2023-02-17T03:43:22;102350.47;;;11.24;86.26
35910;BME280;22004;49.120;-0.200;2023-02-17T03:45:48;102356.53;;;11.26;86.18
35910;BME280;22004;49.120;-0.200;2023-02-17T03:48:13;102357.81;;;11.22;86.04
35910;BME280;22004;49.120;-0.200;2023-02-17T03:50:38;102351.75;;;11.20;84.97
35910;BME280;22004;49.120;-0.200;2023-02-17T03:53:04;102360.34;;;11.24;85.20
35910;BME280;22004;49.120;-0.200;2023-02-17T03:55:29;102361.72;;;11.37;81.20
35910;BME280;22004;49.120;-0.200;2023-02-17T03:57:55;102362.53;;;11.48;83.04
35910;BME280;22004;49.120;-0.200;2023-02-17T04:00:20;102366.88;;;11.58;82.14
35910;BME280;22004;49.120;-0.200;2023-02-17T04:02:46;102371.56;;;11.56;82.59
35910;BME280;22004;49.120;-0.200;2023-02-17T04:05:11;102369.03;;;11.55;80.62
35910;BME280;22004;49.120;-0.200;2023-02-17T04:07:36;102380.22;;;11.60;81.81
35910;BME280;22004;49.120;-0.200;2023-02-17T04:10:02;102378.94;;;11.64;81.24
35910;BME280;22004;49.120;-0.200;2023-02-17T04:12:28;102383.91;;;11.59;83.31
35910;BME280;22004;49.120;-0.200;2023-02-17T04:14:53;102387.28;;;11.61;80.64
35910;BME280;22004;49.120;-0.200;2023-02-17T04:17:18;102389.13;;;11.60;83.69
35910;BME280;22004;49.120;-0.200;2023-02-17T04:19:43;102398.59;;;11.64;82.33
35910;BME280;22004;49.120;-0.200;2023-02-17T04:22:09;102404.53;;;11.58;80.94
35910;BME280;22004;49.120;-0.200;2023-02-17T04:24:35;102401.56;;;11.61;82.11
35910;BME280;22004;49.120;-0.200;2023-02-17T04:27:02;102405.25;;;11.60;83.25
35910;BME280;22004;49.120;-0.200;2023-02-17T04:29:28;102409.38;;;11.64;80.86
35910;BME280;22004;49.120;-0.200;2023-02-17T04:31:53;102403.22;;;11.72;80.53
35910;BME280;22004;49.120;-0.200;2023-02-17T04:34:19;102399.44;;;11.65;84.85
35910;BME280;22004;49.120;-0.200;2023-02-17T04:36:44;102396.94;;;11.54;85.30
35910;BME280;22004;49.120;-0.200;2023-02-17T04:39:09;102390.97;;;11.60;83.13
35910;BME280;22004;49.120;-0.200;2023-02-17T04:41:35;102400.59;;;11.53;83.76
35910;BME280;22004;49.120;-0.200;2023-02-17T04:44:00;102401.72;;;11.60;82.79
35910;BME280;22004;49.120;-0.200;2023-02-17T04:46:25;102393.34;;;11.63;84.44
35910;BME280;22004;49.120;-0.200;2023-02-17T04:48:51;102397.19;;;11.60;81.88
35910;BME280;22004;49.120;-0.200;2023-02-17T04:51:16;102396.19;;;11.61;81.30
35910;BME280;22004;49.120;-0.200;2023-02-17T04:53:41;102394.09;;;11.55;83.25
35910;BME280;22004;49.120;-0.200;2023-02-17T04:56:07;102393.78;;;11.58;82.43
35910;BME280;22004;49.120;-0.200;2023-02-17T04:58:32;102396.03;;;11.63;84.33
35910;BME280;22004;49.120;-0.200;2023-02-17T05:00:58;102403.56;;;11.59;83.31
35910;BME280;22004;49.120;-0.200;2023-02-17T05:03:24;102399.75;;;11.52;82.88
35910;BME280;22004;49.120;-0.200;2023-02-17T05:05:49;102405.00;;;11.54;83.69
35910;BME280;22004;49.120;-0.200;2023-02-17T05:08:15;102409.41;;;11.55;84.86
35910;BME280;22004;49.120;-0.200;2023-02-17T05:10:40;102405.13;;;11.52;85.68
35910;BME280;22004;49.120;-0.200;2023-02-17T05:13:05;102408.97;;;11.59;82.55
35910;BME280;22004;49.120;-0.200;2023-02-17T05:15:31;102407.19;;;11.68;81.56
35910;BME280;22004;49.120;-0.200;2023-02-17T05:17:56;102415.72;;;11.63;83.77
35910;BME280;22004;49.120;-0.200;2023-02-17T05:20:22;102415.72;;;11.63;83.04
35910;BME280;22004;49.120;-0.200;2023-02-17T05:22:47;102417.88;;;11.60;82.49
35910;BME280;22004;49.120;-0.200;2023-02-17T05:25:12;102411.94;;;11.56;83.80
35910;BME280;22004;49.120;-0.200;2023-02-17T05:27:38;102412.09;;;11.55;85.54
35910;BME280;22004;49.120;-0.200;2023-02-17T05:30:04;102418.59;;;11.52;83.72
35910;BME280;22004;49.120;-0.200;2023-02-17T05:32:29;102416.47;;;11.56;85.63
35910;BME280;22004;49.120;-0.200;2023-02-17T05:34:54;102415.78;;;11.54;84.85
35910;BME280;22004;49.120;-0.200;2023-02-17T05:37:20;102407.81;;;11.52;86.19
35910;BME280;22004;49.120;-0.200;2023-02-17T05:39:45;102407.13;;;11.50;86.12
35910;BME280;22004;49.120;-0.200;2023-02-17T05:42:11;102411.25;;;11.54;85.81
35910;BME280;22004;49.120;-0.200;2023-02-17T05:44:36;102413.53;;;11.49;83.36
35910;BME280;22004;49.120;-0.200;2023-02-17T05:47:01;102417.44;;;11.64;85.55
35910;BME280;22004;49.120;-0.200;2023-02-17T05:49:27;102423.13;;;11.52;85.07
35910;BME280;22004;49.120;-0.200;2023-02-17T05:51:52;102428.47;;;11.61;84.70
35910;BME280;22004;49.120;-0.200;2023-02-17T05:54:18;102428.31;;;11.63;82.06
35910;BME280;22004;49.120;-0.200;2023-02-17T05:56:43;102431.84;;;11.63;82.27
35910;BME280;22004;49.120;-0.200;2023-02-17T05:59:08;102438.63;;;11.68;83.01
35910;BME280;22004;49.120;-0.200;2023-02-17T06:01:34;102437.97;;;11.65;81.77
35910;BME280;22004;49.120;-0.200;2023-02-17T06:03:59;102438.81;;;11.66;84.72
35910;BME280;22004;49.120;-0.200;2023-02-17T06:06:24;102447.72;;;11.67;82.57
35910;BME280;22004;49.120;-0.200;2023-02-17T06:08:50;102441.91;;;11.71;80.85
35910;BME280;22004;49.120;-0.200;2023-02-17T06:11:16;102448.56;;;11.67;83.53
35910;BME280;22004;49.120;-0.200;2023-02-17T06:13:41;102450.81;;;11.72;80.20
35910;BME280;22004;49.120;-0.200;2023-02-17T06:16:06;102450.97;;;11.70;80.42
35910;BME280;22004;49.120;-0.200;2023-02-17T06:18:32;102452.66;;;11.71;83.55
35910;BME280;22004;49.120;-0.200;2023-02-17T06:20:58;102460.88;;;11.70;82.96
35910;BME280;22004;49.120;-0.200;2023-02-17T06:23:24;102463.25;;;11.73;79.55
35910;BME280;22004;49.120;-0.200;2023-02-17T06:25:50;102462.00;;;11.67;80.75
35910;BME280;22004;49.120;-0.200;2023-02-17T06:28:15;102467.28;;;11.69;80.35
35910;BME280;22004;49.120;-0.200;2023-02-17T06:30:40;102457.47;;;11.68;80.81
35910;BME280;22004;49.120;-0.200;2023-02-17T06:33:06;102467.28;;;11.69;83.79
35910;BME280;22004;49.120;-0.200;2023-02-17T06:35:31;102468.97;;;11.70;82.63
35910;BME280;22004;49.120;-0.200;2023-02-17T06:37:57;102470.25;;;11.65;84.11
35910;BME280;22004;49.120;-0.200;2023-02-17T06:40:22;102464.25;;;11.72;83.48
35910;BME280;22004;49.120;-0.200;2023-02-17T06:42:48;102476.88;;;11.71;80.53
35910;BME280;22004;49.120;-0.200;2023-02-17T06:45:14;102481.84;;;11.66;82.45
35910;BME280;22004;49.120;-0.200;2023-02-17T06:47:39;102491.47;;;11.69;82.87
35910;BME280;22004;49.120;-0.200;2023-02-17T06:50:05;102482.81;;;11.75;80.84
35910;BME280;22004;49.120;-0.200;2023-02-17T06:52:31;102487.91;;;11.78;80.89
35910;BME280;22004;49.120;-0.200;2023-02-17T06:54:56;102488.22;;;11.75;82.71
35910;BME280;22004;49.120;-0.200;2023-02-17T06:57:22;102491.16;;;11.72;84.39
35910;BME280;22004;49.120;-0.200;2023-02-17T06:59:47;102484.09;;;11.71;84.99
35910;BME280;22004;49.120;-0.200;2023-02-17T07:02:13;102483.13;;;11.62;85.66
35910;BME280;22004;49.120;-0.200;2023-02-17T07:04:39;102487.22;;;11.66;84.36
35910;BME280;22004;49.120;-0.200;2023-02-17T07:07:05;102485.53;;;11.65;84.42
35910;BME280;22004;49.120;-0.200;2023-02-17T07:09:31;102482.25;;;11.71;82.28
35910;BME280;22004;49.120;-0.200;2023-02-17T07:11:56;102487.47;;;11.73;83.01
35910;BME280;22004;49.120;-0.200;2023-02-17T07:14:23;102485.91;;;11.80;82.30
35910;BME280;22004;49.120;-0.200;2023-02-17T07:16:49;102488.22;;;11.84;83.29
35910;BME280;22004;49.120;-0.200;2023-02-17T07:19:14;102485.34;;;11.76;84.03
35910;BME280;22004;49.120;-0.200;2023-02-17T07:21:39;102490.47;;;11.79;81.57
35910;BME280;22004;49.120;-0.200;2023-02-17T07:24:05;102497.41;;;11.82;82.26
35910;BME280;22004;49.120;-0.200;2023-02-17T07:26:30;102502.78;;;11.82;80.92
35910;BME280;22004;49.120;-0.200;2023-02-17T07:28:55;102507.88;;;11.95;81.46
35910;BME280;22004;49.120;-0.200;2023-02-17T07:31:21;102522.59;;;11.81;83.84
35910;BME280;22004;49.120;-0.200;2023-02-17T07:33:46;102513.94;;;11.77;81.94
35910;BME280;22004;49.120;-0.200;2023-02-17T07:36:15;102515.94;;;11.95;80.81
35910;BME280;22004;49.120;-0.200;2023-02-17T07:38:41;102511.16;;;11.88;80.58
35910;BME280;22004;49.120;-0.200;2023-02-17T07:41:09;102508.81;;;12.03;80.23
35910;BME280;22004;49.120;-0.200;2023-02-17T07:43:36;102525.00;;;11.94;81.84
35910;BME280;22004;49.120;-0.200;2023-02-17T07:46:02;102516.59;;;12.06;79.15
35910;BME280;22004;49.120;-0.200;2023-02-17T07:48:27;102502.03;;;11.99;81.20
35910;BME280;22004;49.120;-0.200;2023-02-17T07:50:53;102512.06;;;12.07;81.14
35910;BME280;22004;49.120;-0.200;2023-02-17T07:53:18;102509.56;;;11.96;81.98
35910;BME280;22004;49.120;-0.200;2023-02-17T07:55:44;102511.97;;;11.99;80.01
35910;BME280;22004;49.120;-0.200;2023-02-17T07:58:09;102507.00;;;12.04;80.40
35910;BME280;22004;49.120;-0.200;2023-02-17T08:00:34;102504.41;;;12.02;81.33
35910;BME280;22004;49.120;-0.200;2023-02-17T08:03:00;102508.28;;;12.00;81.68
35910;BME280;22004;49.120;-0.200;2023-02-17T08:08:00;102515.34;;;12.01;82.90
35910;BME280;22004;49.120;-0.200;2023-02-17T08:10:44;102515.16;;;12.12;82.29
35910;BME280;22004;49.120;-0.200;2023-02-17T08:13:28;102515.34;;;12.01;83.17
35910;BME280;22004;49.120;-0.200;2023-02-17T08:15:53;102522.72;;;12.08;82.49
35910;BME280;22004;49.120;-0.200;2023-02-17T08:18:18;102519.09;;;12.18;81.90
35910;BME280;22004;49.120;-0.200;2023-02-17T08:20:44;102526.66;;;12.14;82.52
35910;BME280;22004;49.120;-0.200;2023-02-17T08:23:09;102520.09;;;12.16;82.10
35910;BME280;22004;49.120;-0.200;2023-02-17T08:25:35;102524.66;;;12.16;82.32
35910;BME280;22004;49.120;-0.200;2023-02-17T08:28:03;102521.94;;;12.16;81.79
35910;BME280;22004;49.120;-0.200;2023-02-17T08:30:29;102529.03;;;12.17;83.14
35910;BME280;22004;49.120;-0.200;2023-02-17T08:32:55;102529.31;;;12.24;82.39
35910;BME280;22004;49.120;-0.200;2023-02-17T08:35:20;102527.59;;;12.23;82.33
35910;BME280;22004;49.120;-0.200;2023-02-17T08:37:48;102532.69;;;12.26;82.60
35910;BME280;22004;49.120;-0.200;2023-02-17T08:40:13;102537.78;;;12.29;81.71
35910;BME280;22004;49.120;-0.200;2023-02-17T08:42:39;102537.63;;;12.30;82.68
35910;BME280;22004;49.120;-0.200;2023-02-17T08:45:05;102527.00;;;12.29;83.19
35910;BME280;22004;49.120;-0.200;2023-02-17T08:47:30;102531.47;;;12.38;81.56
35910;BME280;22004;49.120;-0.200;2023-02-17T08:49:55;102536.59;;;12.41;81.72
35910;BME280;22004;49.120;-0.200;2023-02-17T08:52:21;102535.59;;;12.42;81.85
35910;BME280;22004;49.120;-0.200;2023-02-17T08:54:46;102540.97;;;12.42;81.00
35910;BME280;22004;49.120;-0.200;2023-02-17T08:57:11;102535.13;;;12.47;79.88
35910;BME280;22004;49.120;-0.200;2023-02-17T08:59:37;102539.34;;;12.59;81.57
35910;BME280;22004;49.120;-0.200;2023-02-17T09:02:02;102536.25;;;12.54;80.45
35910;BME280;22004;49.120;-0.200;2023-02-17T09:04:28;102527.13;;;12.64;79.58
35910;BME280;22004;49.120;-0.200;2023-02-17T09:06:54;102544.97;;;12.65;78.93
35910;BME280;22004;49.120;-0.200;2023-02-17T09:09:23;102550.53;;;12.82;78.69
35910;BME280;22004;49.120;-0.200;2023-02-17T09:11:54;102549.28;;;13.04;77.72
35910;BME280;22004;49.120;-0.200;2023-02-17T09:14:20;102559.41;;;12.92;79.42
35910;BME280;22004;49.120;-0.200;2023-02-17T09:16:49;102564.69;;;12.93;80.34
35910;BME280;22004;49.120;-0.200;2023-02-17T09:19:14;102566.97;;;12.88;78.43
35910;BME280;22004;49.120;-0.200;2023-02-17T09:21:40;102568.09;;;12.68;78.91
35910;BME280;22004;49.120;-0.200;2023-02-17T09:24:05;102573.66;;;12.84;77.74
35910;BME280;22004;49.120;-0.200;2023-02-17T09:26:31;102575.75;;;12.90;77.37
35910;BME280;22004;49.120;-0.200;2023-02-17T09:28:59;102582.88;;;12.82;77.11
35910;BME280;22004;49.120;-0.200;2023-02-17T09:31:26;102583.59;;;12.56;77.58
35910;BME280;22004;49.120;-0.200;2023-02-17T09:33:52;102578.50;;;12.53;77.94
35910;BME280;22004;49.120;-0.200;2023-02-17T09:36:25;102584.28;;;12.86;77.00
35910;BME280;22004;49.120;-0.200;2023-02-17T09:38:52;102583.56;;;13.11;76.81
35910;BME280;22004;49.120;-0.200;2023-02-17T09:44:04;102584.06;;;13.25;76.04
35910;BME280;22004;49.120;-0.200;2023-02-17T09:46:44;102597.56;;;13.25;76.16
35910;BME280;22004;49.120;-0.200;2023-02-17T09:49:16;102600.81;;;13.28;76.07
35910;BME280;22004;49.120;-0.200;2023-02-17T09:52:04;102592.88;;;13.44;75.51
35910;BME280;22004;49.120;-0.200;2023-02-17T09:54:39;102596.66;;;13.34;75.00
35910;BME280;22004;49.120;-0.200;2023-02-17T09:57:07;102595.81;;;13.33;74.96
35910;BME280;22004;49.120;-0.200;2023-02-17T09:59:45;102596.56;;;13.26;76.34
35910;BME280;22004;49.120;-0.200;2023-02-17T10:02:18;102601.53;;;13.20;75.86
35910;BME280;22004;49.120;-0.200;2023-02-17T10:04:46;102612.22;;;13.12;75.82
35910;BME280;22004;49.120;-0.200;2023-02-17T10:07:20;102615.94;;;12.84;75.81
35910;BME280;22004;49.120;-0.200;2023-02-17T10:10:05;102625.88;;;12.83;76.83
35910;BME280;22004;49.120;-0.200;2023-02-17T10:12:42;102621.38;;;13.02;75.91
35910;BME280;22004;49.120;-0.200;2023-02-17T10:15:18;102625.31;;;13.35;74.39
35910;BME280;22004;49.120;-0.200;2023-02-17T10:22:48;102623.22;;;13.01;75.26
35910;BME280;22004;49.120;-0.200;2023-02-17T10:25:19;102630.00;;;13.05;76.28
35910;BME280;22004;49.120;-0.200;2023-02-17T10:27:58;102630.34;;;13.20;74.61
35910;BME280;22004;49.120;-0.200;2023-02-17T10:30:54;102624.38;;;13.62;73.67
35910;BME280;22004;49.120;-0.200;2023-02-17T10:33:40;102626.25;;;13.43;74.21
35910;BME280;22004;49.120;-0.200;2023-02-17T10:36:13;102645.97;;;13.44;75.78
35910;BME280;22004;49.120;-0.200;2023-02-17T10:38:50;102638.03;;;13.25;74.79
35910;BME280;22004;49.120;-0.200;2023-02-17T10:41:21;102633.94;;;13.11;74.77
35910;BME280;22004;49.120;-0.200;2023-02-17T10:43:48;102635.56;;;13.04;75.80
35910;BME280;22004;49.120;-0.200;2023-02-17T10:46:16;102638.38;;;13.02;76.27
35910;BME280;22004;49.120;-0.200;2023-02-17T10:48:46;102649.56;;;13.07;75.04
35910;BME280;22004;49.120;-0.200;2023-02-17T10:51:19;102647.13;;;13.14;76.04
35910;BME280;22004;49.120;-0.200;2023-02-17T10:53:50;102650.69;;;13.14;75.52
35910;BME280;22004;49.120;-0.200;2023-02-17T10:56:27;102644.78;;;13.01;74.99
35910;BME280;22004;49.120;-0.200;2023-02-17T11:01:26;102651.91;;;12.92;75.60
35910;BME280;22004;49.120;-0.200;2023-02-17T11:04:00;102640.16;;;12.93;75.53
35910;BME280;22004;49.120;-0.200;2023-02-17T11:06:26;102653.28;;;13.06;75.46
35910;BME280;22004;49.120;-0.200;2023-02-17T11:08:57;102645.94;;;12.99;74.77
35910;BME280;22004;49.120;-0.200;2023-02-17T11:11:26;102636.63;;;12.93;74.92
35910;BME280;22004;49.120;-0.200;2023-02-17T11:16:38;102637.69;;;12.73;76.21
35910;BME280;22004;49.120;-0.200;2023-02-17T11:19:37;102635.19;;;12.61;78.02
35910;BME280;22004;49.120;-0.200;2023-02-17T11:22:05;102633.06;;;12.65;77.01
35910;BME280;22004;49.120;-0.200;2023-02-17T11:24:32;102637.88;;;12.61;76.60
35910;BME280;22004;49.120;-0.200;2023-02-17T11:27:04;102640.84;;;12.68;77.23
35910;BME280;22004;49.120;-0.200;2023-02-17T11:29:30;102632.34;;;12.63;77.01
35910;BME280;22004;49.120;-0.200;2023-02-17T11:32:05;102628.88;;;12.80;75.75
35910;BME280;22004;49.120;-0.200;2023-02-17T11:34:35;102629.44;;;12.84;76.72
35910;BME280;22004;49.120;-0.200;2023-02-17T11:39:53;102625.88;;;12.83;75.36
35910;BME280;22004;49.120;-0.200;2023-02-17T11:44:49;102623.44;;;12.90;77.44
35910;BME280;22004;49.120;-0.200;2023-02-17T11:58:32;102630.72;;;12.80;76.77
35910;BME280;22004;49.120;-0.200;2023-02-17T12:09:20;102631.88;;;13.05;75.02
35910;BME280;22004;49.120;-0.200;2023-02-17T12:12:01;102621.28;;;12.93;74.86
35910;BME280;22004;49.120;-0.200;2023-02-17T12:14:54;102614.66;;;12.88;75.13
35910;BME280;22004;49.120;-0.200;2023-02-17T12:17:49;102626.06;;;13.00;74.55
35910;BME280;22004;49.120;-0.200;2023-02-17T12:20:32;102634.44;;;12.97;75.42
35910;BME280;22004;49.120;-0.200;2023-02-17T12:26:02;102632.06;;;12.93;75.51
35910;BME280;22004;49.120;-0.200;2023-02-17T12:31:02;102626.56;;;12.85;75.01
35910;BME280;22004;49.120;-0.200;2023-02-17T12:33:53;102631.72;;;12.79;75.57
35910;BME280;22004;49.120;-0.200;2023-02-17T12:36:26;102640.34;;;12.82;75.51
35910;BME280;22004;49.120;-0.200;2023-02-17T12:38:57;102636.94;;;12.80;75.35
35910;BME280;22004;49.120;-0.200;2023-02-17T12:41:50;102632.41;;;12.81;75.29
35910;BME280;22004;49.120;-0.200;2023-02-17T12:44:19;102631.59;;;12.71;75.00
35910;BME280;22004;49.120;-0.200;2023-02-17T12:46:50;102625.97;;;12.64;75.88
35910;BME280;22004;49.120;-0.200;2023-02-17T12:52:13;102644.03;;;12.81;74.97
35910;BME280;22004;49.120;-0.200;2023-02-17T12:55:17;102635.94;;;12.54;76.43
35910;BME280;22004;49.120;-0.200;2023-02-17T12:57:55;102632.44;;;12.71;75.58
35910;BME280;22004;49.120;-0.200;2023-02-17T13:00:27;102632.03;;;12.66;75.68
35910;BME280;22004;49.120;-0.200;2023-02-17T13:02:57;102631.59;;;12.71;75.30
35910;BME280;22004;49.120;-0.200;2023-02-17T13:05:27;102631.88;;;12.67;75.73
35910;BME280;22004;49.120;-0.200;2023-02-17T13:08:13;102629.50;;;12.64;75.86
35910;BME280;22004;49.120;-0.200;2023-02-17T13:10:41;102629.06;;;12.69;75.14
35910;BME280;22004;49.120;-0.200;2023-02-17T13:13:24;102635.47;;;12.68;76.32
35910;BME280;22004;49.120;-0.200;2023-02-17T13:16:04;102630.16;;;12.76;76.30
35910;BME280;22004;49.120;-0.200;2023-02-17T13:18:35;102628.31;;;12.77;75.09
35910;BME280;22004;49.120;-0.200;2023-02-17T13:21:31;102632.13;;;12.84;75.36
35910;BME280;22004;49.120;-0.200;2023-02-17T13:24:05;102634.41;;;12.79;75.92
35910;BME280;22004;49.120;-0.200;2023-02-17T13:26:38;102635.88;;;12.73;75.79
35910;BME280;22004;49.120;-0.200;2023-02-17T13:31:57;102643.78;;;12.75;75.64
35910;BME280;22004;49.120;-0.200;2023-02-17T13:34:38;102632.28;;;12.73;75.63
35910;BME280;22004;49.120;-0.200;2023-02-17T13:37:24;102635.00;;;12.73;75.60
35910;BME280;22004;49.120;-0.200;2023-02-17T13:39:50;102630.19;;;12.66;75.25
35910;BME280;22004;49.120;-0.200;2023-02-17T13:42:40;102625.66;;;12.67;74.96
35910;BME280;22004;49.120;-0.200;2023-02-17T13:48:11;102633.78;;;12.57;75.15
35910;BME280;22004;49.120;-0.200;2023-02-17T13:50:45;102639.91;;;12.50;76.28
35910;BME280;22004;49.120;-0.200;2023-02-17T13:55:45;102641.63;;;12.41;76.16
35910;BME280;22004;49.120;-0.200;2023-02-17T13:58:10;102639.06;;;12.49;75.72
35910;BME280;22004;49.120;-0.200;2023-02-17T14:00:36;102639.81;;;12.32;76.90
35910;BME280;22004;49.120;-0.200;2023-02-17T14:03:14;102637.09;;;12.41;76.40
35910;BME280;22004;49.120;-0.200;2023-02-17T14:05:44;102639.19;;;12.48;75.76